Terminal Aerodrome Forecast
Issued by NWS

Home | Current Version | Previous Version | Text Only | Print | Product List | Glossary On
Versions: 1 2 3 4 5 6 7 8 9 10 11 12 13 14 15 16 17 18 19 20 21 22 23 24 25 26 27 28 29 30 31
137
FTUS46 KMTR 260901 AAA
TAFSFO
TAF AMD
KSFO 260901Z 2609/2712 25005KT P6SM FEW015 SCT030 BKN150
      TEMPO 2612/2615 BKN015 OVC250
     FM261800 17004KT P6SM SCT040 OVC250
     FM270200 16010KT P6SM -RA BKN030 OVC080
     FM270800 21008KT 6SM -RA BR SCT012 OVC025=

USA.gov is the U.S. government's official web portal to all federal, state and local government web resources and services.